createdAt,value
2019-01-23T00:01:01.231Z,77.12
2019-01-23T00:05:06.393Z,76.96
2019-01-23T00:09:11.476Z,77.06
2019-01-23T00:13:16.504Z,77.03
2019-01-23T00:17:21.546Z,76.90
2019-01-23T00:21:26.673Z,76.88
2019-01-23T00:25:31.765Z,76.87
2019-01-23T00:29:37.003Z,76.71
2019-01-23T00:33:41.983Z,76.70
2019-01-23T00:37:47.086Z,76.75
2019-01-23T00:41:52.180Z,76.73
2019-01-23T00:45:57.425Z,76.71
2019-01-23T00:50:02.452Z,76.88
2019-01-23T00:54:07.770Z,76.78
2019-01-23T00:58:12.832Z,76.65
2019-01-23T01:02:17.935Z,76.63
2019-01-23T01:06:23.942Z,76.64
2019-01-23T01:10:29.078Z,76.40
2019-01-23T01:14:34.131Z,76.25
2019-01-23T01:18:40.137Z,76.19
2019-01-23T01:22:45.239Z,75.82
2019-01-23T01:26:50.296Z,75.88
2019-01-23T01:30:55.377Z,75.66
2019-01-23T01:35:00.413Z,75.73
2019-01-23T01:39:08.526Z,75.66
2019-01-23T01:43:13.621Z,75.41
2019-01-23T01:47:18.726Z,75.45
2019-01-23T01:51:24.112Z,75.32
2019-01-23T01:55:29.222Z,75.17
2019-01-23T01:59:34.274Z,74.92
2019-01-23T02:03:39.398Z,74.93
2019-01-23T02:07:44.543Z,74.72
2019-01-23T02:11:50.629Z,74.85
2019-01-23T02:15:55.676Z,74.49
2019-01-23T02:20:00.807Z,74.43
2019-01-23T02:24:05.901Z,74.55
2019-01-23T02:28:11.260Z,74.31
2019-01-23T02:32:16.386Z,73.95
2019-01-23T02:36:21.516Z,74.22
2019-01-23T02:40:26.586Z,73.96
2019-01-23T02:44:31.740Z,73.75
2019-01-23T02:48:38.184Z,73.95
2019-01-23T02:52:43.295Z,73.71
2019-01-23T02:56:48.369Z,74.27
2019-01-23T03:00:53.359Z,74.42
2019-01-23T03:04:59.093Z,74.48
2019-01-23T03:09:05.663Z,74.34
2019-01-23T03:13:10.720Z,74.55
2019-01-23T03:17:16.116Z,74.25
2019-01-23T03:21:21.249Z,74.41
2019-01-23T03:25:26.401Z,74.21
2019-01-23T03:29:31.798Z,74.58
2019-01-23T03:33:36.917Z,74.87
2019-01-23T03:37:42.029Z,74.93
2019-01-23T03:41:47.155Z,74.80
2019-01-23T03:45:52.221Z,74.79
2019-01-23T03:49:57.402Z,74.73
2019-01-23T03:54:02.438Z,74.84
2019-01-23T03:58:07.818Z,74.82
2019-01-23T04:02:12.972Z,74.74
2019-01-23T04:06:18.049Z,74.87
2019-01-23T04:10:23.062Z,75.09
2019-01-23T04:14:28.244Z,75.10
2019-01-23T04:18:33.317Z,75.13
2019-01-23T04:22:38.452Z,75.05
2019-01-23T04:26:43.446Z,75.12
2019-01-23T04:30:48.539Z,75.14
2019-01-23T04:34:53.609Z,74.94
2019-01-23T04:38:58.709Z,74.83
2019-01-23T04:43:03.812Z,74.88
2019-01-23T04:47:09.164Z,74.86
2019-01-23T04:51:35.479Z,74.84
2019-01-23T04:55:41.105Z,74.63
2019-01-23T04:59:46.925Z,74.76
2019-01-23T05:03:52.234Z,74.57
2019-01-23T05:07:57.327Z,74.77
2019-01-23T05:12:02.374Z,74.75
2019-01-23T05:16:07.414Z,74.68
2019-01-23T05:20:12.734Z,74.93
2019-01-23T05:24:17.826Z,75.10
2019-01-23T05:28:22.865Z,75.32
2019-01-23T05:32:27.891Z,75.40
2019-01-23T05:36:32.938Z,75.48
2019-01-23T05:40:38.218Z,75.50
2019-01-23T05:44:43.273Z,75.35
2019-01-23T05:48:48.346Z,75.44
2019-01-23T05:52:54.807Z,75.23
2019-01-23T05:56:59.748Z,75.07
2019-01-23T06:01:04.930Z,74.88
2019-01-23T06:05:10.128Z,74.79
2019-01-23T06:09:15.282Z,75.04
2019-01-23T06:13:20.310Z,75.18
2019-01-23T06:17:25.488Z,75.18
2019-01-23T06:21:30.614Z,75.51
2019-01-23T06:25:35.798Z,75.61
2019-01-23T06:29:40.843Z,75.58
2019-01-23T06:33:46.318Z,75.44
2019-01-23T06:37:51.532Z,75.45
2019-01-23T06:41:56.676Z,77.27
2019-01-23T06:46:02.593Z,77.75
2019-01-23T06:50:10.092Z,78.24
2019-01-23T06:54:15.231Z,77.85
2019-01-23T06:58:20.361Z,77.29
2019-01-23T07:02:25.631Z,76.15
2019-01-23T07:06:30.709Z,75.15
2019-01-23T07:10:35.802Z,75.33
2019-01-23T07:14:40.921Z,75.29
2019-01-23T07:18:46.068Z,75.38
2019-01-23T07:22:51.155Z,75.36
2019-01-23T07:26:56.266Z,75.47
2019-01-23T07:31:01.376Z,75.42
2019-01-23T07:35:06.586Z,75.37
2019-01-23T07:39:11.860Z,75.17
2019-01-23T07:43:17.056Z,75.30
2019-01-23T07:47:22.200Z,75.09
2019-01-23T07:51:27.388Z,74.42
2019-01-23T07:55:32.427Z,74.21
2019-01-23T07:59:37.590Z,74.09
2019-01-23T08:03:44.133Z,74.09
2019-01-23T08:07:50.617Z,74.10
2019-01-23T08:11:55.701Z,73.98
2019-01-23T08:16:00.816Z,73.78
2019-01-23T08:20:08.455Z,73.84
2019-01-23T08:24:13.596Z,73.50
2019-01-23T08:28:18.756Z,73.18
2019-01-23T08:32:24.508Z,73.09
2019-01-23T08:36:29.804Z,72.72
2019-01-23T08:40:35.078Z,72.37
2019-01-23T08:44:40.260Z,71.91
2019-01-23T08:48:45.282Z,71.61
2019-01-23T08:52:50.435Z,71.48
2019-01-23T08:56:55.514Z,71.19
2019-01-23T09:01:00.713Z,71.21
2019-01-23T09:05:06.943Z,70.92
2019-01-23T09:09:12.426Z,70.78
2019-01-23T09:13:17.526Z,70.63
2019-01-23T09:17:22.606Z,70.78
2019-01-23T09:21:27.772Z,70.67
2019-01-23T09:25:32.914Z,70.21
2019-01-23T09:29:38.146Z,69.98
2019-01-23T09:34:08.449Z,70.23
2019-01-23T09:38:43.124Z,70.04
2019-01-23T09:43:05.377Z,70.36
2019-01-23T09:47:40.208Z,69.56
2019-01-23T09:52:17.758Z,69.16
2019-01-23T09:56:23.315Z,68.54
2019-01-23T10:00:31.700Z,68.48
2019-01-23T10:04:36.550Z,68.74
2019-01-23T10:08:41.746Z,66.83
2019-01-23T10:12:46.876Z,66.85
2019-01-23T10:16:52.109Z,67.15
2019-01-23T10:20:57.632Z,66.74
2019-01-23T10:25:03.109Z,67.24
2019-01-23T10:29:10.859Z,67.35
2019-01-23T10:33:17.332Z,67.22
2019-01-23T10:37:22.554Z,67.22
2019-01-23T10:41:27.966Z,66.61
2019-01-23T10:45:33.332Z,65.66
2019-01-23T10:49:38.382Z,65.88
2019-01-23T10:53:43.515Z,64.67
2019-01-23T10:57:48.709Z,63.43
2019-01-23T11:01:53.830Z,64.32
2019-01-23T11:05:59.101Z,62.38
2019-01-23T11:10:05.613Z,65.03
2019-01-23T11:14:10.940Z,65.90
2019-01-23T11:18:16.374Z,65.79
2019-01-23T11:22:21.337Z,66.90
2019-01-23T11:26:26.454Z,67.83
2019-01-23T11:30:31.540Z,67.75
2019-01-23T11:34:36.646Z,67.80
2019-01-23T11:38:41.886Z,66.88
2019-01-23T11:42:47.007Z,67.28
2019-01-23T11:46:52.114Z,67.97
2019-01-23T11:50:57.089Z,66.57
2019-01-23T11:55:02.131Z,66.98
2019-01-23T11:59:07.182Z,67.30
2019-01-23T12:03:13.317Z,67.29
2019-01-23T12:07:18.558Z,66.50
2019-01-23T12:11:23.876Z,67.11
2019-01-23T12:15:30.146Z,66.99
2019-01-23T12:19:35.516Z,67.22
2019-01-23T12:23:40.563Z,66.67
2019-01-23T12:27:46.717Z,66.22
2019-01-23T12:31:51.803Z,65.58
2019-01-23T12:35:56.833Z,65.24
2019-01-23T12:40:02.413Z,64.74
2019-01-23T12:44:07.927Z,64.09
2019-01-23T12:48:13.068Z,64.27
2019-01-23T12:52:18.202Z,63.09
2019-01-23T12:56:23.359Z,63.28
2019-01-23T13:00:30.063Z,63.10
2019-01-23T13:04:35.280Z,63.10
2019-01-23T13:08:40.465Z,62.95
2019-01-23T13:12:46.023Z,63.30
2019-01-23T13:16:51.072Z,62.02
2019-01-23T13:20:56.126Z,61.88
2019-01-23T13:25:01.165Z,63.23
2019-01-23T13:29:06.469Z,63.02
2019-01-23T13:33:11.939Z,63.39
2019-01-23T13:37:16.991Z,63.14
2019-01-23T13:41:22.147Z,63.17
2019-01-23T13:45:27.233Z,62.54
2019-01-23T13:49:33.381Z,63.15
2019-01-23T13:53:38.578Z,62.96
2019-01-23T13:57:43.672Z,62.22
2019-01-23T14:01:48.806Z,62.38
2019-01-23T14:05:53.884Z,62.14
2019-01-23T14:09:59.306Z,61.32
2019-01-23T14:14:05.236Z,61.73
2019-01-23T14:18:11.093Z,61.43
2019-01-23T14:22:16.214Z,60.88
2019-01-23T14:26:21.311Z,59.88
2019-01-23T14:30:29.156Z,59.96
2019-01-23T14:34:34.219Z,60.76
2019-01-23T14:38:40.321Z,61.21
2019-01-23T14:42:45.386Z,61.08
2019-01-23T14:46:50.517Z,61.86
2019-01-23T14:50:56.689Z,62.33
2019-01-23T14:55:01.806Z,60.98
2019-01-23T15:03:10.212Z,61.67
2019-01-23T15:07:15.284Z,62.26
2019-01-23T15:11:20.388Z,62.64
2019-01-23T15:15:25.621Z,63.11
2019-01-23T15:19:30.733Z,63.62
2019-01-23T15:23:35.883Z,63.63
2019-01-23T15:27:40.970Z,65.54
2019-01-23T15:36:23.646Z,64.98
2019-01-23T15:40:31.321Z,64.68
2019-01-23T15:44:36.463Z,64.24
2019-01-23T15:48:41.566Z,65.39
2019-01-23T15:52:46.632Z,64.96
2019-01-23T15:56:53.352Z,65.26
2019-01-23T16:00:58.495Z,65.95
2019-01-23T16:05:14.861Z,66.89
2019-01-23T16:13:42.194Z,67.89
2019-01-23T16:18:02.730Z,68.16
2019-01-23T16:22:27.093Z,68.55
2019-01-23T16:35:19.072Z,68.12
2019-01-23T16:44:45.406Z,67.06
2019-01-23T16:48:50.509Z,67.17
2019-01-23T16:52:55.688Z,66.93
2019-01-23T16:57:00.670Z,67.23
2019-01-23T17:01:05.773Z,67.41
2019-01-23T17:09:49.231Z,67.03
2019-01-23T17:13:54.494Z,66.83
2019-01-23T17:17:59.735Z,66.55
2019-01-23T17:22:16.698Z,66.40
2019-01-23T17:26:21.822Z,66.56
2019-01-23T17:30:26.986Z,65.60
2019-01-23T17:34:32.169Z,65.65
2019-01-23T17:43:19.040Z,64.25
2019-01-23T17:51:54.968Z,64.04
2019-01-23T17:56:11.940Z,64.16
2019-01-23T18:04:39.624Z,63.94
2019-01-23T18:08:44.783Z,64.17
2019-01-23T18:12:49.889Z,63.68
2019-01-23T18:17:06.770Z,63.64
2019-01-23T18:21:12.966Z,63.14
2019-01-23T18:25:18.418Z,62.95
2019-01-23T18:29:35.163Z,62.75
2019-01-23T18:33:56.407Z,63.63
2019-01-23T18:38:39.657Z,63.32
2019-01-23T18:43:15.637Z,63.15
2019-01-23T18:47:59.158Z,62.69
2019-01-23T18:52:23.397Z,63.35
2019-01-23T18:56:28.511Z,63.20
2019-01-23T19:00:33.677Z,63.29
2019-01-23T19:04:38.836Z,64.10
2019-01-23T19:08:43.942Z,63.28
2019-01-23T19:12:49.137Z,63.33
2019-01-23T19:16:54.246Z,63.27
2019-01-23T19:21:18.473Z,63.70
2019-01-23T19:25:23.600Z,62.92
2019-01-23T19:29:28.648Z,63.24
2019-01-23T19:33:33.815Z,63.60
2019-01-23T19:41:56.424Z,63.86
2019-01-23T19:46:01.565Z,63.79
2019-01-23T19:50:08.263Z,63.86
2019-01-23T19:54:13.332Z,63.96
2019-01-23T19:58:18.460Z,64.17
2019-01-23T20:06:40.481Z,63.81
2019-01-23T20:15:16.644Z,63.98
2019-01-23T20:19:29.242Z,63.22
2019-01-23T20:23:34.737Z,62.82
2019-01-23T20:27:59.011Z,63.60
2019-01-23T20:32:16.078Z,62.63
2019-01-23T20:36:21.274Z,62.96
2019-01-23T20:40:26.338Z,63.30
2019-01-23T20:44:50.666Z,62.38
2019-01-23T20:48:55.860Z,62.54
2019-01-23T20:53:01.339Z,63.16
2019-01-23T20:57:06.590Z,63.70
2019-01-23T21:01:23.540Z,62.69
2019-01-23T21:05:40.063Z,63.50
2019-01-23T21:09:45.325Z,62.75
2019-01-23T21:13:50.555Z,64.21
2019-01-23T21:18:07.795Z,64.29
2019-01-23T21:22:12.885Z,63.81
2019-01-23T21:31:01.043Z,64.04
2019-01-23T21:35:06.380Z,63.52
2019-01-23T21:39:11.585Z,64.69
2019-01-23T21:43:35.787Z,63.46
2019-01-23T21:47:40.915Z,63.31
2019-01-23T21:51:46.077Z,63.67
2019-01-23T21:55:51.575Z,63.46
2019-01-23T21:59:56.670Z,63.95
2019-01-23T22:04:01.731Z,63.79
2019-01-23T22:12:56.724Z,63.92
2019-01-23T22:26:07.670Z,63.17
2019-01-23T22:30:21.121Z,63.74
2019-01-23T22:34:26.211Z,64.11
2019-01-23T22:38:31.277Z,63.97
2019-01-23T22:42:36.381Z,64.56
2019-01-23T22:46:41.539Z,64.05
2019-01-23T22:51:05.706Z,64.02
2019-01-23T22:55:11.265Z,63.43
2019-01-23T22:59:16.306Z,63.80
2019-01-23T23:03:21.932Z,63.46
2019-01-23T23:07:26.988Z,63.57
2019-01-23T23:20:31.472Z,63.96
2019-01-23T23:24:55.612Z,63.95
2019-01-23T23:33:17.949Z,64.83
2019-01-23T23:41:39.837Z,63.83
2019-01-23T23:45:44.898Z,64.47
2019-01-23T23:49:50.158Z,64.89
2019-01-23T23:58:24.916Z,65.40
